Wakashio — 3EKF7 — position and weather

sailwx.info

Track history (hours):
 
Tides and Currents Weather Stations Pressure Air Temp Water Temp Dewpoint Dewpoint Depression Visibility Wind Speed Wind Dir Waves Ship Positions

Wakashio

Last reported at 2017-Sep-17 16:49 UTC. Time now 2017-Sep-20 01:52 UTC.
Position S 34°20' E 018°08'.

Length 300 m; draft 10.5 m.

Type: Cargo ship. MMSI: 372711000.

Date/timePositionNaut miles runAvg speedWind from/ knotsBaromVisibWave heightAir tempDewpointWater temp
2017-Sep-17 16:49S 34°20' E 018°08'3 9.2
2017-Sep-17 16:27S 34°17' E 018°07'15 9.4
2017-Sep-17 14:52S 34°02' E 018°03'  
2017-Sep-15 04:29S 33°46' E 017°60'611.6
2017-Sep-15 04:00S 33°52' E 018°01'612.3
2017-Sep-15 03:29S 33°58' E 018°03'1512.8
2017-Sep-15 02:19S 34°13' E 018°06'1913.9
2017-Sep-15 00:56S 34°30' E 018°17'60312.6
2017-Sep-13 01:09S 32°48' E 030°12'813.3
2017-Sep-13 00:33S 32°45' E 030°20'114.4
2017-Sep-13 00:27S 32°45' E 030°22'714.6
2017-Sep-13 00:00S 32°42' E 030°29'714.4
2017-Sep-12 23:30S 32°39' E 030°37'714.4
2017-Sep-12 22:59S 32°36' E 030°45'714.5
2017-Sep-12 22:30S 32°33' E 030°53'714.4
2017-Sep-12 22:00S 32°30' E 031°00'714.3
2017-Sep-12 21:30S 32°27' E 031°08'714.4
2017-Sep-12 21:00S 32°24' E 031°16'714.6
2017-Sep-12 20:30S 32°21' E 031°24'4814.4
2017-Sep-12 17:10S 32°01' E 032°15'214.2
2017-Sep-12 17:00S 32°00' E 032°18'714.2
2017-Sep-12 16:30S 31°58' E 032°26'713.7
2017-Sep-12 16:00S 31°55' E 032°33'713.8
2017-Sep-12 15:30S 31°53' E 032°41'714.0
2017-Sep-12 15:01S 31°49' E 032°48'714.2
2017-Sep-12 14:31S 31°46' E 032°55'714.3
2017-Sep-12 14:00S 31°43' E 033°03'714.5
2017-Sep-12 13:31S 31°40' E 033°11'714.6
2017-Sep-12 13:00S 31°37' E 033°19'714.8
2017-Sep-12 12:30S 31°35' E 033°27'714.5
2017-Sep-12 12:01S 31°32' E 033°35'814.6
2017-Sep-12 11:28S 31°28' E 033°43'714.7
2017-Sep-12 10:58S 31°25' E 033°51'714.8
2017-Sep-12 10:30S 31°22' E 033°58'814.9
2017-Sep-12 10:00S 31°19' E 034°06'714.9
2017-Sep-12 09:30S 31°16' E 034°14'814.5
2017-Sep-12 08:58S 31°14' E 034°23'714.0
2017-Sep-12 08:30S 31°11' E 034°30'713.9
2017-Sep-12 08:00S 31°08' E 034°37'713.6
2017-Sep-12 07:30S 31°06' E 034°44'1013.7
2017-Sep-12 06:46S 31°01' E 034°55'413.9
2017-Sep-12 06:30S 30°60' E 034°59'714.0
2017-Sep-12 06:00S 30°57' E 035°06'3213.9
2017-Sep-12 03:44S 30°44' E 035°40'313.7
2017-Sep-12 03:30S 30°42' E 035°43'913.9
2017-Sep-12 02:53S 30°39' E 035°52'1013.9
2017-Sep-12 02:09S 30°35' E 036°03'1913.9
2017-Sep-12 00:45S 30°27' E 036°23'313.6
2017-Sep-12 00:30S 30°25' E 036°27'5913.4
2017-Sep-11 20:08S 30°01' E 037°29'313.1
2017-Sep-11 19:54S 30°00' E 037°32'  
2017-Sep-08 05:34S 19°51' E 056°47'114.3
2017-Sep-08 05:28S 19°50' E 056°48'714.4
2017-Sep-08 04:58S 19°47' E 056°55'714.4
2017-Sep-08 04:31S 19°45' E 057°01'714.5
2017-Sep-08 04:00S 19°42' E 057°09'714.6
2017-Sep-08 03:30S 19°39' E 057°16'714.6
2017-Sep-08 03:00S 19°36' E 057°23'714.9
2017-Sep-08 02:30S 19°33' E 057°30'815.3
2017-Sep-08 02:00S 19°29' E 057°37'815.4
2017-Sep-08 01:31S 19°26' E 057°45'815.3
2017-Sep-08 01:00S 19°23' E 057°52'914.8
2017-Sep-08 00:24S 19°20' E 058°01'614.6
2017-Sep-07 23:59S 19°17' E 058°07'  
Track history (hours):
 
Tides and Currents Weather Stations Pressure Air Temp Water Temp Dewpoint Dewpoint Depression Visibility Wind Speed Wind Dir Waves Ship Positions

Wakashio

Last reported at 2017-Sep-17 16:49 UTC. Time now 2017-Sep-20 01:52 UTC.
Position S 34°20' E 018°08'.

Length 300 m; draft 10.5 m.

Type: Cargo ship. MMSI: 372711000.

Date/timePositionNaut miles runAvg speedWind from/ knotsBaromVisibWave heightAir tempDewpointWater temp
2017-Sep-17 16:49S 34°20' E 018°08'3 9.2
2017-Sep-17 16:27S 34°17' E 018°07'15 9.4
2017-Sep-17 14:52S 34°02' E 018°03'  
2017-Sep-15 04:29S 33°46' E 017°60'611.6
2017-Sep-15 04:00S 33°52' E 018°01'612.3
2017-Sep-15 03:29S 33°58' E 018°03'1512.8
2017-Sep-15 02:19S 34°13' E 018°06'1913.9
2017-Sep-15 00:56S 34°30' E 018°17'60312.6
2017-Sep-13 01:09S 32°48' E 030°12'813.3
2017-Sep-13 00:33S 32°45' E 030°20'114.4
2017-Sep-13 00:27S 32°45' E 030°22'714.6
2017-Sep-13 00:00S 32°42' E 030°29'714.4
2017-Sep-12 23:30S 32°39' E 030°37'714.4
2017-Sep-12 22:59S 32°36' E 030°45'714.5
2017-Sep-12 22:30S 32°33' E 030°53'714.4
2017-Sep-12 22:00S 32°30' E 031°00'714.3
2017-Sep-12 21:30S 32°27' E 031°08'714.4
2017-Sep-12 21:00S 32°24' E 031°16'714.6
2017-Sep-12 20:30S 32°21' E 031°24'4814.4
2017-Sep-12 17:10S 32°01' E 032°15'214.2
2017-Sep-12 17:00S 32°00' E 032°18'714.2
2017-Sep-12 16:30S 31°58' E 032°26'713.7
2017-Sep-12 16:00S 31°55' E 032°33'713.8
2017-Sep-12 15:30S 31°53' E 032°41'714.0
2017-Sep-12 15:01S 31°49' E 032°48'714.2
2017-Sep-12 14:31S 31°46' E 032°55'714.3
2017-Sep-12 14:00S 31°43' E 033°03'714.5
2017-Sep-12 13:31S 31°40' E 033°11'714.6
2017-Sep-12 13:00S 31°37' E 033°19'714.8
2017-Sep-12 12:30S 31°35' E 033°27'714.5
2017-Sep-12 12:01S 31°32' E 033°35'814.6
2017-Sep-12 11:28S 31°28' E 033°43'714.7
2017-Sep-12 10:58S 31°25' E 033°51'714.8
2017-Sep-12 10:30S 31°22' E 033°58'814.9
2017-Sep-12 10:00S 31°19' E 034°06'714.9
2017-Sep-12 09:30S 31°16' E 034°14'814.5
2017-Sep-12 08:58S 31°14' E 034°23'714.0
2017-Sep-12 08:30S 31°11' E 034°30'713.9
2017-Sep-12 08:00S 31°08' E 034°37'713.6
2017-Sep-12 07:30S 31°06' E 034°44'1013.7
2017-Sep-12 06:46S 31°01' E 034°55'413.9
2017-Sep-12 06:30S 30°60' E 034°59'714.0
2017-Sep-12 06:00S 30°57' E 035°06'3213.9
2017-Sep-12 03:44S 30°44' E 035°40'313.7
2017-Sep-12 03:30S 30°42' E 035°43'913.9
2017-Sep-12 02:53S 30°39' E 035°52'1013.9
2017-Sep-12 02:09S 30°35' E 036°03'1913.9
2017-Sep-12 00:45S 30°27' E 036°23'313.6
2017-Sep-12 00:30S 30°25' E 036°27'5913.4
2017-Sep-11 20:08S 30°01' E 037°29'313.1
2017-Sep-11 19:54S 30°00' E 037°32'  
2017-Sep-08 05:34S 19°51' E 056°47'114.3
2017-Sep-08 05:28S 19°50' E 056°48'714.4
2017-Sep-08 04:58S 19°47' E 056°55'714.4
2017-Sep-08 04:31S 19°45' E 057°01'714.5
2017-Sep-08 04:00S 19°42' E 057°09'714.6
2017-Sep-08 03:30S 19°39' E 057°16'714.6
2017-Sep-08 03:00S 19°36' E 057°23'714.9
2017-Sep-08 02:30S 19°33' E 057°30'815.3
2017-Sep-08 02:00S 19°29' E 057°37'815.4
2017-Sep-08 01:31S 19°26' E 057°45'815.3
2017-Sep-08 01:00S 19°23' E 057°52'914.8
2017-Sep-08 00:24S 19°20' E 058°01'614.6
2017-Sep-07 23:59S 19°17' E 058°07'  

Dump ship's entire track history